Time;durP1;ratioP1;P1;durP2;ratioP2;P2;SDS_P1;SDS_P2;PMS_P1;PMS_P2;Temp;Humidity;BMP_temperature;BMP_pressure;BME280_temperature;BME280_humidity;BME280_pressure;Samples;Min_cycle;Max_cycle;Signal;HPM_P1;HPM_P2
2021/10/01 00:01:26;;;;;;;4.43;2.07;;;12.40;99.90;;;;;;5012273;28;20439;-49
2021/10/01 00:03:53;;;;;;;6.37;2.87;;;12.80;99.90;;;;;;5012710;28;20594;-48
2021/10/01 00:06:20;;;;;;;7.73;2.30;;;12.40;99.90;;;;;;5012246;28;20471;-48
2021/10/01 00:08:46;;;;;;;3.07;2.30;;;12.30;99.90;;;;;;5011827;28;20513;-48
2021/10/01 00:11:13;;;;;;;7.23;2.73;;;12.20;99.80;;;;;;5012510;28;20457;-48
2021/10/01 00:13:40;;;;;;;4.60;2.00;;;12.20;99.80;;;;;;5012360;28;20525;-48
2021/10/01 00:16:06;;;;;;;5.63;2.00;;;11.80;99.60;;;;;;5012259;28;20515;-48
2021/10/01 00:18:36;;;;;;;5.33;2.00;;;12.20;99.70;;;;;;5011876;28;20441;-48
2021/10/01 00:21:03;;;;;;;4.80;2.50;;;12.20;99.70;;;;;;5012298;28;20515;-49
2021/10/01 00:23:30;;;;;;;6.20;2.13;;;12.20;99.70;;;;;;5012125;28;20930;-48
2021/10/01 00:25:57;;;;;;;10.80;2.27;;;12.20;99.60;;;;;;5012107;28;20460;-48
2021/10/01 00:32:11;;;;;;;4.50;2.50;;;12.20;99.60;;;;;;5012350;28;20974;-49
2021/10/01 00:34:39;;;;;;;4.00;2.00;;;12.20;99.70;;;;;;5010865;28;20453;-50
2021/10/01 00:37:05;;;;;;;3.10;2.20;;;12.10;99.70;;;;;;5012262;28;20410;-49
2021/10/01 00:39:32;;;;;;;6.17;2.37;;;12.20;99.80;;;;;;5013623;28;20475;-49
2021/10/01 00:42:00;;;;;;;4.50;2.30;;;12.20;99.80;;;;;;5013064;28;20521;-48
2021/10/01 00:44:27;;;;;;;4.60;2.20;;;12.10;99.90;;;;;;5012242;28;20436;-48
2021/10/01 00:46:53;;;;;;;2.97;2.27;;;11.90;99.80;;;;;;5012057;28;20985;-49
2021/10/01 00:49:20;;;;;;;6.20;2.53;;;12.00;99.90;;;;;;5016131;28;20461;-49
2021/10/01 00:51:48;;;;;;;6.50;2.50;;;11.80;99.90;;;;;;5016320;28;20956;-48
2021/10/01 00:54:15;;;;;;;4.40;2.43;;;12.00;99.90;;;;;;5016453;28;20542;-48
2021/10/01 00:56:42;;;;;;;4.40;2.10;;;11.90;99.90;;;;;;5016759;28;20805;-48
2021/10/01 00:59:08;;;;;;;6.07;2.20;;;11.50;99.90;;;;;;5039127;22;21396;-51
2021/10/01 01:01:35;;;;;;;3.20;2.30;;;11.90;99.90;;;;;;5014472;28;20495;-52
2021/10/01 01:04:04;;;;;;;4.90;2.87;;;12.20;99.90;;;;;;5014429;28;20530;-51
2021/10/01 01:06:39;;;;;;;3.20;2.47;;;12.10;99.90;;;;;;5015680;28;20481;-52
2021/10/01 01:09:18;;;;;;;4.80;2.40;;;11.80;99.90;;;;;;5014032;28;21042;-52
2021/10/01 01:11:58;;;;;;;2.80;2.03;;;12.00;99.90;;;;;;5014368;28;20436;-52
2021/10/01 01:14:32;;;;;;;4.03;2.20;;;11.90;99.90;;;;;;5014266;28;20529;-51
2021/10/01 01:17:01;;;;;;;6.50;2.57;;;12.00;99.90;;;;;;5014242;28;20486;-52
2021/10/01 01:19:42;;;;;;;5.13;2.77;;;12.20;99.90;;;;;;5013665;28;20445;-52
2021/10/01 01:22:23;;;;;;;5.90;1.87;;;12.20;99.90;;;;;;5014073;28;20462;-52
2021/10/01 01:25:35;;;;;;;4.03;2.30;;;11.90;99.90;;;;;;5014280;28;20623;-52
2021/10/01 01:28:10;;;;;;;4.40;2.23;;;11.70;99.90;;;;;;4983848;28;20499;-51
2021/10/01 01:30:39;;;;;;;6.37;3.10;;;11.60;99.90;;;;;;5013825;28;20952;-52
2021/10/01 01:33:08;;;;;;;4.73;2.00;;;11.70;99.90;;;;;;5013879;28;20477;-52
2021/10/01 01:35:39;;;;;;;2.60;2.10;;;11.90;99.90;;;;;;5015199;28;20437;-52
2021/10/01 01:38:08;;;;;;;5.50;2.60;;;11.80;99.90;;;;;;5013540;28;20444;-51
2021/10/01 01:40:36;;;;;;;3.03;1.83;;;12.00;99.90;;;;;;5014833;28;20462;-52
2021/10/01 01:43:06;;;;;;;5.53;3.10;;;11.40;99.90;;;;;;5013628;28;20457;-52
2021/10/01 01:45:36;;;;;;;4.33;2.17;;;11.90;99.90;;;;;;5013347;28;21000;-52
2021/10/01 01:48:04;;;;;;;5.17;2.50;;;11.50;99.90;;;;;;5014628;28;20624;-52
2021/10/01 01:50:33;;;;;;;5.80;2.33;;;12.00;99.90;;;;;;5013598;28;21053;-52
2021/10/01 01:53:01;;;;;;;4.60;3.07;;;11.50;99.90;;;;;;5013434;28;20452;-51
2021/10/01 01:55:29;;;;;;;4.17;2.40;;;11.80;99.90;;;;;;5013545;28;20512;-51
2021/10/01 01:57:58;;;;;;;5.07;2.83;;;11.90;99.90;;;;;;5013099;28;20536;-52
2021/10/01 02:00:47;;;;;;;6.27;2.20;;;11.50;99.90;;;;;;5013691;28;20919;-51
2021/10/01 02:03:15;;;;;;;3.30;2.37;;;11.40;99.90;;;;;;5013421;28;20831;-51
2021/10/01 02:05:48;;;;;;;3.73;2.93;;;11.50;99.90;;;;;;5013189;28;20481;-52
2021/10/01 02:08:16;;;;;;;5.87;2.80;;;11.60;99.90;;;;;;5012791;28;20450;-51
2021/10/01 02:10:44;;;;;;;5.63;2.33;;;11.30;99.90;;;;;;5014382;28;20468;-51
2021/10/01 02:13:12;;;;;;;5.40;2.50;;;11.80;99.90;;;;;;5013206;28;20454;-52
2021/10/01 02:15:45;;;;;;;6.50;3.10;;;11.40;99.90;;;;;;5013325;28;20531;-52
2021/10/01 02:18:12;;;;;;;4.43;2.77;;;11.40;99.90;;;;;;5013915;28;20438;-50
2021/10/01 02:20:40;;;;;;;8.53;2.90;;;11.20;99.90;;;;;;5012897;28;20481;-52
2021/10/01 02:23:08;;;;;;;6.30;2.77;;;11.40;99.90;;;;;;5013190;28;20455;-52
2021/10/01 02:28:29;;;;;;;5.30;3.10;;;11.50;99.90;;;;;;5013775;28;20570;-52
2021/10/01 02:30:58;;;;;;;3.00;2.60;;;11.00;99.90;;;;;;5012677;28;20452;-52
2021/10/01 02:33:34;;;;;;;9.67;3.10;;;10.90;99.90;;;;;;5012757;28;20454;-51
2021/10/01 02:36:01;;;;;;;7.23;3.30;;;11.30;99.90;;;;;;5012909;28;20456;-52
2021/10/01 02:38:29;;;;;;;3.87;2.80;;;11.60;99.90;;;;;;5012225;28;20777;-52
2021/10/01 02:40:55;;;;;;;2.73;2.50;;;11.40;99.90;;;;;;5012530;28;20482;-51
2021/10/01 02:43:22;;;;;;;3.83;2.83;;;11.40;99.90;;;;;;5012493;28;20435;-52
2021/10/01 02:45:49;;;;;;;3.40;2.80;;;11.20;99.90;;;;;;5012366;28;20424;-52
2021/10/01 02:48:16;;;;;;;5.07;3.23;;;11.40;99.90;;;;;;5012076;28;20466;-51
2021/10/01 02:50:45;;;;;;;4.40;3.20;;;10.80;99.90;;;;;;5012353;28;20539;-52
2021/10/01 02:53:16;;;;;;;4.57;2.60;;;11.50;99.90;;;;;;5013537;28;20494;-53
2021/10/01 02:55:55;;;;;;;5.17;3.33;;;10.80;99.90;;;;;;5012467;28;20564;-52
2021/10/01 02:58:27;;;;;;;5.50;3.00;;;10.90;99.90;;;;;;5011925;28;20540;-52
2021/10/01 03:00:56;;;;;;;5.13;2.97;;;11.20;99.90;;;;;;4995805;28;20895;-52
2021/10/01 03:03:31;;;;;;;7.43;2.67;;;11.00;99.90;;;;;;5013363;28;20952;-53
2021/10/01 03:06:00;;;;;;;4.70;3.00;;;11.60;99.90;;;;;;5012035;28;20468;-52
2021/10/01 03:08:29;;;;;;;3.23;2.73;;;11.10;99.90;;;;;;5011638;28;20515;-52
2021/10/01 03:10:59;;;;;;;5.33;2.63;;;11.60;99.90;;;;;;5011946;28;20527;-51
2021/10/01 03:13:27;;;;;;;3.57;2.77;;;11.20;99.90;;;;;;5013257;28;20442;-52
2021/10/01 03:15:59;;;;;;;4.00;2.63;;;11.30;99.90;;;;;;5012063;28;20453;-50
2021/10/01 03:18:28;;;;;;;6.73;3.13;;;11.40;99.90;;;;;;5011428;28;20468;-51
2021/10/01 03:20:56;;;;;;;5.27;3.07;;;11.00;99.90;;;;;;5013168;28;20465;-52
2021/10/01 03:23:23;;;;;;;3.90;3.20;;;11.20;99.90;;;;;;5013061;28;20431;-51
2021/10/01 03:25:52;;;;;;;4.43;3.07;;;11.60;99.90;;;;;;5011628;28;20452;-52
2021/10/01 03:28:21;;;;;;;4.63;3.30;;;11.20;99.90;;;;;;5011330;28;20470;-52
2021/10/01 03:30:49;;;;;;;4.03;2.90;;;10.70;99.90;;;;;;5011554;28;20928;-52
2021/10/01 03:33:16;;;;;;;4.43;2.97;;;10.70;99.90;;;;;;5012794;28;20800;-52
2021/10/01 03:35:44;;;;;;;6.57;3.23;;;11.10;99.90;;;;;;5011311;28;20448;-52
2021/10/01 03:38:12;;;;;;;6.40;3.70;;;11.10;99.90;;;;;;5011046;28;20452;-51
2021/10/01 03:40:43;;;;;;;3.50;2.80;;;11.00;99.90;;;;;;5011402;28;20447;-52
2021/10/01 03:43:10;;;;;;;4.20;3.20;;;11.00;99.90;;;;;;5011424;28;20452;-53
2021/10/01 03:45:38;;;;;;;4.47;2.97;;;11.30;99.90;;;;;;5011239;28;20507;-52
2021/10/01 03:48:06;;;;;;;4.97;2.97;;;11.00;99.90;;;;;;5012356;28;20483;-51
2021/10/01 03:50:44;;;;;;;10.23;3.43;;;10.90;99.90;;;;;;5011263;28;20489;-52
2021/10/01 03:53:11;;;;;;;3.80;3.27;;;11.00;99.90;;;;;;5012295;28;20427;-51
2021/10/01 03:55:38;;;;;;;4.87;2.80;;;11.30;99.90;;;;;;5010823;28;20424;-52
2021/10/01 03:58:05;;;;;;;4.90;3.00;;;10.30;99.90;;;;;;5012019;28;20512;-52
2021/10/01 04:00:32;;;;;;;5.00;3.47;;;10.70;99.90;;;;;;5011192;28;20845;-52
2021/10/01 04:03:02;;;;;;;4.50;3.30;;;11.00;99.90;;;;;;5011204;28;20457;-52
2021/10/01 04:05:35;;;;;;;4.60;3.53;;;11.00;99.90;;;;;;5011004;28;20473;-52
2021/10/01 04:08:08;;;;;;;4.50;2.80;;;10.70;99.90;;;;;;5011982;28;20473;-52
2021/10/01 04:10:37;;;;;;;4.47;3.07;;;10.70;99.90;;;;;;5010957;28;20472;-52
2021/10/01 04:13:04;;;;;;;5.97;3.00;;;10.80;99.90;;;;;;5011045;28;20940;-52
2021/10/01 04:15:32;;;;;;;5.40;3.43;;;10.40;99.90;;;;;;5010900;28;20861;-52
2021/10/01 04:17:59;;;;;;;8.93;3.50;;;10.80;99.90;;;;;;5010461;28;20941;-52
2021/10/01 04:20:28;;;;;;;5.43;3.37;;;10.80;99.90;;;;;;5010692;28;20988;-52
2021/10/01 04:22:55;;;;;;;4.13;3.10;;;10.70;99.90;;;;;;5010233;28;20931;-51
2021/10/01 04:25:40;;;;;;;6.67;3.43;;;10.80;99.90;;;;;;5012197;28;20427;-51
2021/10/01 04:28:08;;;;;;;4.93;3.23;;;10.60;99.90;;;;;;5010152;28;20480;-53
2021/10/01 04:30:42;;;;;;;7.33;4.27;;;10.70;99.90;;;;;;5010329;28;20540;-52
2021/10/01 04:33:13;;;;;;;9.03;3.43;;;10.70;99.90;;;;;;5010561;28;20806;-51
2021/10/01 04:35:42;;;;;;;3.37;2.90;;;10.30;99.90;;;;;;5010447;28;20457;-52
2021/10/01 04:38:08;;;;;;;5.67;3.60;;;10.30;99.90;;;;;;5009692;28;20459;-52
2021/10/01 04:40:35;;;;;;;7.37;3.20;;;11.10;99.90;;;;;;5010405;28;20479;-53
2021/10/01 04:43:02;;;;;;;11.77;4.50;;;10.70;99.90;;;;;;5010301;28;20984;-53
2021/10/01 04:45:29;;;;;;;8.50;4.30;;;10.70;99.90;;;;;;5010069;28;20453;-51
2021/10/01 04:47:57;;;;;;;4.50;3.23;;;10.50;99.90;;;;;;5009772;28;20479;-51
2021/10/01 04:50:24;;;;;;;4.30;2.87;;;10.30;99.90;;;;;;5010279;28;20981;-52
2021/10/01 04:52:52;;;;;;;5.80;3.20;;;11.00;99.90;;;;;;5010341;28;20530;-51
2021/10/01 04:55:25;;;;;;;13.70;3.60;;;10.80;99.90;;;;;;5010354;28;20558;-52
2021/10/01 04:57:53;;;;;;;4.63;3.03;;;10.50;99.90;;;;;;5010054;28;20477;-52
2021/10/01 05:00:54;;;;;;;11.23;5.07;;;10.80;99.90;;;;;;5011274;28;20476;-52
2021/10/01 05:03:44;;;;;;;4.80;3.33;;;11.10;99.90;;;;;;5010921;28;20460;-52
2021/10/01 05:06:49;;;;;;;5.20;3.60;;;10.70;99.90;;;;;;4950427;29;20785;-52
2021/10/01 05:09:35;;;;;;;5.87;3.63;;;10.90;99.90;;;;;;4950228;29;20806;-52
2021/10/01 05:12:21;;;;;;;6.40;3.63;;;10.40;99.90;;;;;;4994513;28;20440;-52
2021/10/01 05:15:07;;;;;;;5.07;3.57;;;10.90;99.90;;;;;;5010935;28;21010;-52
2021/10/01 05:17:53;;;;;;;8.10;3.60;;;10.50;99.90;;;;;;5010730;28;20567;-52
2021/10/01 05:20:38;;;;;;;4.23;3.80;;;10.60;99.90;;;;;;5011172;28;20497;-52
2021/10/01 05:23:13;;;;;;;5.83;3.27;;;10.60;99.90;;;;;;5009813;28;20946;-53
2021/10/01 05:25:41;;;;;;;6.00;3.87;;;10.60;99.90;;;;;;5009188;28;20432;-51
2021/10/01 05:28:08;;;;;;;7.20;4.73;;;10.70;99.90;;;;;;5010503;28;20472;-52
2021/10/01 05:30:34;;;;;;;4.40;3.63;;;11.00;99.90;;;;;;5009420;28;20468;-53
2021/10/01 05:33:05;;;;;;;9.30;3.97;;;10.30;99.90;;;;;;5010408;28;20427;-53
2021/10/01 05:35:33;;;;;;;14.83;3.77;;;10.60;99.90;;;;;;5013560;28;20543;-52
2021/10/01 05:38:00;;;;;;;8.13;4.30;;;10.60;99.90;;;;;;5012891;28;20437;-55
2021/10/01 05:40:27;;;;;;;4.27;3.17;;;10.70;99.90;;;;;;5013757;28;20483;-53
2021/10/01 05:42:55;;;;;;;6.23;3.43;;;11.10;99.90;;;;;;5012762;28;20463;-53
2021/10/01 05:45:22;;;;;;;7.20;3.50;;;10.70;99.90;;;;;;5013050;28;20463;-53
2021/10/01 05:48:09;;;;;;;7.47;3.50;;;10.70;99.90;;;;;;5012947;28;20491;-53
2021/10/01 05:50:57;;;;;;;6.33;3.60;;;10.80;99.90;;;;;;5013860;28;20451;-53
2021/10/01 05:54:13;;;;;;;10.10;3.83;;;11.00;99.90;;;;;;4960271;28;20862;-53
2021/10/01 05:56:59;;;;;;;5.83;4.23;;;11.00;99.90;;;;;;5014012;28;20411;-53
2021/10/01 05:59:48;;;;;;;5.60;4.20;;;11.00;99.90;;;;;;5003009;28;20488;-53
2021/10/01 06:02:16;;;;;;;4.33;3.70;;;11.30;99.90;;;;;;5013628;28;20435;-53
2021/10/01 06:04:43;;;;;;;6.77;3.27;;;11.00;99.90;;;;;;5013861;28;20942;-53
2021/10/01 06:07:12;;;;;;;5.57;4.00;;;11.10;99.90;;;;;;5013392;28;20443;-53
2021/10/01 06:09:39;;;;;;;6.67;3.80;;;11.10;99.90;;;;;;5013284;28;20538;-53
2021/10/01 06:12:07;;;;;;;6.30;4.47;;;11.10;99.90;;;;;;5013645;28;20421;-53
2021/10/01 06:14:33;;;;;;;5.27;3.77;;;11.30;99.90;;;;;;5012624;28;20520;-54
2021/10/01 06:17:01;;;;;;;5.57;4.17;;;11.10;99.90;;;;;;5013933;28;20465;-51
2021/10/01 06:19:28;;;;;;;5.23;4.53;;;11.20;99.90;;;;;;5012800;28;20594;-52
2021/10/01 06:21:56;;;;;;;6.10;3.30;;;11.50;99.90;;;;;;5013825;28;20433;-54
2021/10/01 06:24:23;;;;;;;5.60;4.13;;;11.00;99.90;;;;;;5013752;28;20447;-51
2021/10/01 06:26:50;;;;;;;6.97;3.60;;;11.20;99.90;;;;;;5013479;28;20448;-52
2021/10/01 06:29:17;;;;;;;6.83;3.40;;;11.50;99.90;;;;;;5013564;28;20428;-52
2021/10/01 06:35:43;;;;;;;9.03;4.07;;;11.60;99.90;;;;;;5008484;28;20525;-53
2021/10/01 06:38:11;;;;;;;5.80;3.87;;;11.80;99.90;;;;;;5013316;28;20444;-52
2021/10/01 06:40:38;;;;;;;6.07;3.53;;;11.90;99.90;;;;;;5012967;28;20513;-54
2021/10/01 06:43:07;;;;;;;7.30;3.73;;;11.90;99.90;;;;;;5013560;28;20417;-51
2021/10/01 06:45:34;;;;;;;7.13;4.63;;;11.70;99.90;;;;;;5013050;28;20449;-52
2021/10/01 06:48:14;;;;;;;5.50;3.77;;;12.00;99.90;;;;;;5011414;28;20476;-52
2021/10/01 06:51:03;;;;;;;8.40;4.03;;;12.10;99.90;;;;;;5013117;28;20439;-52
2021/10/01 07:24:06;;;;;;;5.60;2.50;;;13.10;99.80;;;;;;5012709;28;20474;-49
2021/10/01 07:35:12;;;;;;;7.77;3.00;;;13.00;99.10;;;;;;5012231;28;20513;-49
2021/10/01 08:19:12;;;;;;;6.43;2.10;;;13.70;98.00;;;;;;5011645;28;20450;-48
2021/10/01 08:21:39;;;;;;;6.90;2.50;;;13.80;97.90;;;;;;4993648;28;20558;-47
2021/10/01 08:24:06;;;;;;;7.87;2.43;;;13.90;98.10;;;;;;5010652;28;20454;-49
2021/10/01 08:26:33;;;;;;;5.73;3.27;;;14.00;98.00;;;;;;4992027;28;20439;-49
2021/10/01 08:29:01;;;;;;;12.33;4.63;;;13.80;97.70;;;;;;4991124;28;20906;-51
2021/10/01 08:31:31;;;;;;;3.00;2.10;;;14.20;97.90;;;;;;4991622;28;20647;-47
2021/10/01 08:33:58;;;;;;;10.03;2.57;;;14.20;97.60;;;;;;4991974;28;20893;-48
2021/10/01 08:36:25;;;;;;;3.10;2.30;;;14.20;97.30;;;;;;4993982;28;20859;-50
2021/10/01 08:39:02;;;;;;;9.07;2.90;;;14.30;97.10;;;;;;4994225;28;20456;-48
2021/10/01 08:41:28;;;;;;;3.33;2.10;;;14.30;97.10;;;;;;5010203;28;20526;-49
2021/10/01 08:43:55;;;;;;;3.37;2.10;;;14.30;96.90;;;;;;4991422;28;20433;-48
2021/10/01 08:46:24;;;;;;;6.43;2.97;;;14.40;96.90;;;;;;4991811;28;20613;-50
2021/10/01 08:48:53;;;;;;;3.20;2.30;;;14.40;96.80;;;;;;4991300;28;20504;-48
2021/10/01 08:51:20;;;;;;;5.70;2.57;;;14.40;96.80;;;;;;4991696;28;20461;-48
2021/10/01 08:53:52;;;;;;;3.47;2.13;;;14.50;96.90;;;;;;4991339;28;20448;-50
2021/10/01 08:56:18;;;;;;;3.77;2.43;;;14.50;96.70;;;;;;4991626;28;20467;-50
2021/10/01 08:58:45;;;;;;;5.10;2.10;;;14.60;96.70;;;;;;4991091;28;20443;-47
2021/10/01 09:01:12;;;;;;;3.47;2.00;;;14.60;96.30;;;;;;4991404;28;20814;-48
2021/10/01 09:03:42;;;;;;;2.67;1.80;;;14.70;96.40;;;;;;4991675;28;20880;-50
2021/10/01 09:06:09;;;;;;;6.60;2.80;;;14.70;96.20;;;;;;4991659;28;20440;-49
2021/10/01 09:08:56;;;;;;;3.53;2.20;;;14.80;96.10;;;;;;5000789;28;20555;-48
2021/10/01 09:11:28;;;;;;;4.27;2.20;;;14.80;96.00;;;;;;5014875;28;20483;-50
2021/10/01 09:13:56;;;;;;;4.97;2.37;;;14.90;96.10;;;;;;5015041;28;20436;-48
2021/10/01 09:16:22;;;;;;;5.63;2.63;;;15.00;96.20;;;;;;5015246;28;20447;-49
2021/10/01 09:18:51;;;;;;;11.50;3.40;;;15.10;96.30;;;;;;4996764;28;20526;-49
2021/10/01 09:21:19;;;;;;;4.60;2.00;;;15.20;96.20;;;;;;5015388;28;20972;-49
2021/10/01 09:23:56;;;;;;;3.87;2.20;;;15.20;95.90;;;;;;5015105;28;20583;-50
2021/10/01 09:26:25;;;;;;;3.20;1.93;;;15.30;95.50;;;;;;5014950;28;20435;-49
2021/10/01 09:28:55;;;;;;;2.87;1.57;;;15.40;95.80;;;;;;4996607;28;20486;-49
2021/10/01 09:31:48;;;;;;;2.37;1.70;;;15.50;95.20;;;;;;5014669;28;20993;-50
2021/10/01 09:34:30;;;;;;;3.40;2.30;;;15.50;95.10;;;;;;4940773;28;20452;-49
2021/10/01 09:37:01;;;;;;;2.90;2.07;;;15.60;95.10;;;;;;5014710;28;20440;-50
2021/10/01 09:39:30;;;;;;;6.53;1.83;;;15.60;94.80;;;;;;5014122;28;20519;-51
2021/10/01 09:41:59;;;;;;;6.03;2.00;;;15.60;94.60;;;;;;5006141;28;20444;-50
2021/10/01 09:44:29;;;;;;;3.73;1.80;;;15.70;94.70;;;;;;4999017;28;20544;-52
2021/10/01 09:46:55;;;;;;;4.53;1.83;;;15.70;94.50;;;;;;5014366;28;20438;-50
2021/10/01 09:49:32;;;;;;;3.67;1.90;;;15.80;94.70;;;;;;5013794;28;20499;-48
2021/10/01 09:51:59;;;;;;;4.80;2.13;;;15.80;94.80;;;;;;5014473;28;20402;-49
2021/10/01 09:54:29;;;;;;;5.40;2.70;;;15.90;94.70;;;;;;5014731;28;20523;-49
2021/10/01 09:57:01;;;;;;;7.90;2.20;;;15.90;94.50;;;;;;5011377;28;20419;-49
2021/10/01 09:59:29;;;;;;;2.90;1.80;;;15.90;94.40;;;;;;4996356;28;20997;-51
2021/10/01 10:02:08;;;;;;;3.87;1.50;;;16.00;94.30;;;;;;4994765;28;20965;-48
2021/10/01 10:04:39;;;;;;;2.20;1.63;;;16.00;94.30;;;;;;4994969;28;20528;-50
2021/10/01 10:07:18;;;;;;;3.47;1.70;;;16.00;94.40;;;;;;4994603;28;20837;-49
2021/10/01 10:09:48;;;;;;;3.23;1.60;;;16.10;94.20;;;;;;5006070;28;20538;-50
2021/10/01 10:12:18;;;;;;;4.47;1.90;;;16.10;94.00;;;;;;5014060;28;20907;-49
2021/10/01 10:14:49;;;;;;;2.70;1.70;;;16.10;93.90;;;;;;5013979;28;20503;-49
2021/10/01 10:17:18;;;;;;;2.93;1.70;;;16.10;93.50;;;;;;5013989;28;20451;-49
2021/10/01 10:19:46;;;;;;;2.77;1.53;;;16.20;93.60;;;;;;5012298;28;20449;-49
2021/10/01 10:22:13;;;;;;;4.03;1.83;;;16.20;93.40;;;;;;5013701;28;20526;-50
2021/10/01 10:24:40;;;;;;;7.23;3.30;;;16.20;93.50;;;;;;5013688;28;20444;-49
2021/10/01 10:27:07;;;;;;;6.43;1.93;;;16.30;93.60;;;;;;5012260;28;20450;-50
2021/10/01 10:29:34;;;;;;;4.80;1.77;;;16.30;93.30;;;;;;5013124;28;20484;-49
2021/10/01 10:32:01;;;;;;;3.27;1.80;;;16.80;93.60;;;;;;5013688;28;20440;-50
2021/10/01 10:34:31;;;;;;;5.90;1.67;;;16.40;93.50;;;;;;5013528;28;20436;-49
2021/10/01 10:37:05;;;;;;;5.97;3.00;;;16.40;93.30;;;;;;5013550;28;20493;-49
2021/10/01 10:39:47;;;;;;;4.20;1.67;;;16.50;93.20;;;;;;5013076;28;20452;-48
2021/10/01 10:42:21;;;;;;;3.93;2.00;;;16.70;92.90;;;;;;5008364;28;20440;-50
2021/10/01 10:44:51;;;;;;;6.40;2.50;;;16.50;92.90;;;;;;4993577;28;20437;-49
2021/10/01 10:47:44;;;;;;;2.60;2.00;;;16.50;93.10;;;;;;4993503;28;20537;-49
2021/10/01 10:50:45;;;;;;;6.60;2.20;;;16.60;92.80;;;;;;5012106;28;20592;-49
2021/10/01 10:53:28;;;;;;;3.43;1.80;;;16.70;92.50;;;;;;5013504;28;20430;-49
2021/10/01 10:56:08;;;;;;;2.63;1.30;;;16.70;92.40;;;;;;5013860;28;20446;-49
2021/10/01 10:58:43;;;;;;;3.20;1.67;;;16.80;92.50;;;;;;5012662;28;20439;-49
2021/10/01 11:01:34;;;;;;;7.80;2.57;;;16.80;92.50;;;;;;5012433;28;20488;-51
2021/10/01 11:04:25;;;;;;;3.53;2.70;;;16.80;92.10;;;;;;5013039;28;20440;-50
2021/10/01 11:06:51;;;;;;;3.50;1.60;;;16.90;92.10;;;;;;5012988;28;20434;-49
2021/10/01 11:09:28;;;;;;;2.93;2.07;;;16.90;92.20;;;;;;5011856;28;20657;-48
2021/10/01 11:11:58;;;;;;;4.60;1.63;;;16.90;92.10;;;;;;5012300;28;20434;-49
2021/10/01 11:14:28;;;;;;;2.50;1.57;;;17.00;92.20;;;;;;5013015;28;20483;-49
2021/10/01 11:17:19;;;;;;;2.93;1.60;;;17.00;91.70;;;;;;5014332;28;20488;-50
2021/10/01 11:19:49;;;;;;;3.13;2.00;;;17.00;91.30;;;;;;5012385;28;20523;-51
2021/10/01 11:22:31;;;;;;;3.00;1.65;;;17.00;91.30;;;;;;5011540;28;20509;-49
2021/10/01 11:25:01;;;;;;;4.43;1.70;;;17.30;90.40;;;;;;5012023;28;20254;-49
2021/10/01 11:27:28;;;;;;;2.50;1.37;;;17.20;90.20;;;;;;5011936;28;20472;-50
2021/10/01 11:29:55;;;;;;;3.17;1.70;;;17.30;90.40;;;;;;5012147;28;20485;-49
2021/10/01 11:32:24;;;;;;;8.03;1.70;;;17.30;90.50;;;;;;5012532;28;20536;-48
2021/10/01 11:34:52;;;;;;;8.87;1.97;;;17.30;90.90;;;;;;5011816;28;20522;-50
2021/10/01 11:37:28;;;;;;;3.17;1.43;;;17.40;90.40;;;;;;5011936;28;20445;-50
2021/10/01 11:39:57;;;;;;;6.27;1.70;;;17.40;89.00;;;;;;5011611;28;20458;-48
2021/10/01 11:42:27;;;;;;;4.90;1.23;;;17.40;89.20;;;;;;5011789;28;20531;-48
2021/10/01 11:44:54;;;;;;;4.17;1.20;;;17.40;87.90;;;;;;5011592;28;20449;-48
2021/10/01 11:47:21;;;;;;;3.20;1.80;;;17.50;88.40;;;;;;5011762;28;20513;-49
2021/10/01 11:49:53;;;;;;;3.23;1.60;;;17.50;88.10;;;;;;4995646;28;20946;-50
2021/10/01 11:52:20;;;;;;;3.40;1.57;;;17.50;87.30;;;;;;4992426;28;20426;-49
2021/10/01 11:54:55;;;;;;;5.40;1.30;;;17.60;87.20;;;;;;4992035;28;20435;-51
2021/10/01 11:57:22;;;;;;;1.43;1.00;;;17.60;86.40;;;;;;4991966;28;20461;-51
2021/10/01 11:59:57;;;;;;;2.50;1.33;;;17.60;86.40;;;;;;4973864;28;20483;-49
2021/10/01 12:02:29;;;;;;;5.43;2.03;;;17.70;86.10;;;;;;4992440;28;20843;-49
2021/10/01 12:04:59;;;;;;;2.80;1.47;;;17.70;86.10;;;;;;4993012;28;20789;-52
2021/10/01 12:07:26;;;;;;;3.43;1.70;;;17.70;85.70;;;;;;4992234;28;20502;-48
2021/10/01 12:10:04;;;;;;;3.53;2.03;;;17.70;85.70;;;;;;5004598;28;20848;-50
2021/10/01 12:12:30;;;;;;;5.17;3.57;;;17.70;85.30;;;;;;5011971;28;20448;-50
2021/10/01 12:14:58;;;;;;;3.73;1.80;;;17.60;84.90;;;;;;5011760;28;20430;-52
2021/10/01 12:17:25;;;;;;;3.37;1.40;;;17.70;84.90;;;;;;5011855;28;20949;-52
2021/10/01 12:19:58;;;;;;;3.00;1.60;;;17.70;84.90;;;;;;5012104;28;20861;-49
2021/10/01 12:22:28;;;;;;;5.40;1.90;;;17.80;85.00;;;;;;5011571;28;20453;-49
2021/10/01 12:24:56;;;;;;;3.90;1.90;;;17.40;83.70;;;;;;5011322;28;20965;-49
2021/10/01 12:27:33;;;;;;;4.10;1.50;;;17.80;84.40;;;;;;5011109;28;20441;-50
2021/10/01 12:30:01;;;;;;;3.33;1.47;;;17.90;82.10;;;;;;5011033;28;20484;-50
2021/10/01 12:32:28;;;;;;;7.03;1.53;;;17.90;82.30;;;;;;5011619;28;20573;-50
2021/10/01 12:34:56;;;;;;;2.20;1.67;;;18.10;82.20;;;;;;5012279;28;20468;-50
2021/10/01 12:37:25;;;;;;;5.43;3.50;;;17.90;81.90;;;;;;5011507;28;20446;-50
2021/10/01 12:39:54;;;;;;;4.03;1.47;;;17.90;83.00;;;;;;5010932;28;20463;-49
2021/10/01 12:42:26;;;;;;;1.90;1.17;;;18.00;82.40;;;;;;5010973;28;20477;-50
2021/10/01 12:45:00;;;;;;;4.20;1.10;;;17.90;80.80;;;;;;5011416;28;20805;-51
2021/10/01 12:47:28;;;;;;;3.10;1.23;;;17.90;80.10;;;;;;5011402;28;20442;-49
2021/10/01 12:49:59;;;;;;;1.93;1.30;;;17.90;79.70;;;;;;4994090;28;20491;-50
2021/10/01 12:52:27;;;;;;;3.77;1.30;;;17.90;79.70;;;;;;4991680;28;20539;-50
2021/10/01 12:54:56;;;;;;;4.23;2.30;;;18.00;79.80;;;;;;4991393;28;20453;-49
2021/10/01 12:57:27;;;;;;;3.00;1.60;;;18.00;79.00;;;;;;4992176;28;20839;-51
2021/10/01 12:59:56;;;;;;;4.27;1.60;;;18.00;78.80;;;;;;5007365;23;20495;-52
2021/10/01 13:02:27;;;;;;;3.90;2.00;;;17.90;78.40;;;;;;5010682;28;20879;-53
2021/10/01 13:04:58;;;;;;;5.00;1.60;;;18.00;78.80;;;;;;5010968;28;20452;-52
2021/10/01 13:07:36;;;;;;;3.83;1.47;;;17.90;78.80;;;;;;5010850;28;20437;-51
2021/10/01 13:10:26;;;;;;;4.80;1.30;;;18.00;78.40;;;;;;5010457;28;20534;-52
2021/10/01 13:12:56;;;;;;;5.60;1.40;;;18.00;78.60;;;;;;5010812;28;20881;-53
2021/10/01 13:15:29;;;;;;;2.33;1.00;;;18.00;78.50;;;;;;5010375;28;20442;-53
2021/10/01 13:18:01;;;;;;;3.07;2.10;;;18.00;78.10;;;;;;5009857;28;20441;-52
2021/10/01 13:20:30;;;;;;;3.43;1.63;;;18.00;78.20;;;;;;5010672;28;20525;-53
2021/10/01 13:23:01;;;;;;;1.90;1.23;;;18.00;78.60;;;;;;5010653;28;20936;-52
2021/10/01 13:25:30;;;;;;;2.60;1.30;;;18.00;78.80;;;;;;5010516;28;20486;-53
2021/10/01 13:27:58;;;;;;;3.93;1.47;;;18.00;79.10;;;;;;5010075;28;20525;-53
2021/10/01 13:30:26;;;;;;;3.03;1.10;;;17.90;78.60;;;;;;5010503;28;20480;-52
2021/10/01 13:32:53;;;;;;;3.80;1.20;;;17.90;78.40;;;;;;5010377;28;20453;-52
2021/10/01 13:35:19;;;;;;;2.33;1.07;;;17.90;78.30;;;;;;5010835;28;20955;-52
2021/10/01 13:37:48;;;;;;;3.57;1.40;;;17.80;78.40;;;;;;5010170;28;20940;-51
2021/10/01 13:40:16;;;;;;;3.10;1.53;;;17.90;78.40;;;;;;5010479;28;20559;-52
2021/10/01 13:42:43;;;;;;;1.80;1.10;;;17.90;78.50;;;;;;5010235;28;20558;-52
2021/10/01 13:45:10;;;;;;;2.93;1.10;;;17.90;78.10;;;;;;5010554;28;20524;-53
2021/10/01 13:47:37;;;;;;;2.93;1.07;;;18.10;78.10;;;;;;5010012;28;20963;-52
2021/10/01 13:50:06;;;;;;;2.00;1.30;;;17.90;77.20;;;;;;5009881;28;20600;-52
2021/10/01 13:52:32;;;;;;;2.97;1.80;;;17.90;77.00;;;;;;5010192;28;20443;-53
2021/10/01 13:55:00;;;;;;;6.73;1.47;;;17.90;76.70;;;;;;5011102;28;20431;-53
2021/10/01 13:57:28;;;;;;;4.17;1.30;;;17.90;76.40;;;;;;5014269;28;20435;-53
2021/10/01 13:59:55;;;;;;;3.20;1.10;;;17.90;75.70;;;;;;5013071;28;20461;-52
2021/10/01 14:02:22;;;;;;;1.67;1.00;;;18.20;76.30;;;;;;5013524;28;20438;-52
2021/10/01 14:04:49;;;;;;;3.20;1.60;;;17.90;75.70;;;;;;5013821;28;20438;-51
2021/10/01 14:07:15;;;;;;;2.00;1.77;;;17.90;75.00;;;;;;5013929;28;20476;-52
2021/10/01 14:09:42;;;;;;;2.00;1.30;;;17.90;74.50;;;;;;5013437;28;20476;-51
2021/10/01 14:12:11;;;;;;;2.67;1.57;;;17.90;73.80;;;;;;5013515;28;20465;-52
2021/10/01 14:14:37;;;;;;;4.07;1.73;;;17.80;73.70;;;;;;5014155;28;20456;-51
2021/10/01 14:17:04;;;;;;;5.23;1.67;;;17.90;74.10;;;;;;5013507;28;20461;-52
2021/10/01 14:19:31;;;;;;;2.70;1.47;;;17.90;73.30;;;;;;5013059;28;20435;-52
2021/10/01 14:21:57;;;;;;;2.77;1.73;;;17.80;71.90;;;;;;5013441;28;20439;-51
2021/10/01 14:24:24;;;;;;;4.20;1.47;;;17.90;72.20;;;;;;5013386;28;20446;-52
2021/10/01 14:26:51;;;;;;;1.67;1.17;;;17.90;72.60;;;;;;5013503;28;20431;-52
2021/10/01 14:29:19;;;;;;;2.30;1.40;;;17.80;72.60;;;;;;5013162;28;20975;-52
2021/10/01 14:31:45;;;;;;;2.77;1.47;;;17.90;73.00;;;;;;5012241;28;20471;-54
2021/10/01 14:34:12;;;;;;;2.73;1.23;;;17.90;72.80;;;;;;5012863;28;20569;-51
2021/10/01 14:36:39;;;;;;;3.30;1.30;;;17.90;72.20;;;;;;5012829;28;20445;-51